createdAt,value
2023-02-14T21:19:20.884Z,47.55
2023-02-14T21:21:49.183Z,47.66
2023-02-14T21:24:20.567Z,48.17
2023-02-14T21:26:48.695Z,47.24
2023-02-14T21:29:17.395Z,47.67
2023-02-14T21:31:45.865Z,47.32
2023-02-14T21:34:16.879Z,48.27
2023-02-14T21:37:00.771Z,47.61
2023-02-14T21:39:31.752Z,47.53
2023-02-14T21:42:01.801Z,47.05
2023-02-14T21:44:48.256Z,47.08
2023-02-14T21:47:16.524Z,47.19
2023-02-14T21:50:06.388Z,47.95
2023-02-14T21:52:38.245Z,47.66
2023-02-14T21:55:09.733Z,48.11
2023-02-14T21:57:38.065Z,47.87
2023-02-14T22:00:07.069Z,47.91
2023-02-14T22:02:35.395Z,47.98
2023-02-14T22:05:03.704Z,48.14
2023-02-14T22:07:31.994Z,47.86
2023-02-14T22:10:00.265Z,47.28
2023-02-14T22:12:30.254Z,47.17
2023-02-14T22:15:01.127Z,46.93
2023-02-14T22:17:29.743Z,46.80
2023-02-14T22:19:58.021Z,46.63
2023-02-14T22:22:26.619Z,46.83
2023-02-14T22:24:54.862Z,46.63
2023-02-14T22:27:23.205Z,46.20
2023-02-14T22:29:51.594Z,46.53
2023-02-14T22:32:19.958Z,46.17
2023-02-14T22:34:48.246Z,45.99
2023-02-14T22:37:16.627Z,45.78
2023-02-14T22:39:44.836Z,45.65
2023-02-14T22:42:13.178Z,45.17
2023-02-14T22:44:41.488Z,45.06
2023-02-14T22:47:09.718Z,44.31
2023-02-14T22:49:37.990Z,44.33
2023-02-14T22:52:06.489Z,43.79
2023-02-14T22:54:34.733Z,43.08
2023-02-14T22:57:03.049Z,43.33
2023-02-14T22:59:32.996Z,42.78
2023-02-14T23:02:02.476Z,42.76
2023-02-14T23:04:30.886Z,43.23
2023-02-14T23:06:59.400Z,43.31
2023-02-14T23:09:29.039Z,44.04
2023-02-14T23:11:57.370Z,44.01
2023-02-14T23:14:43.846Z,44.20
2023-02-14T23:17:19.566Z,44.84
2023-02-14T23:20:09.878Z,45.11
2023-02-14T23:22:40.594Z,45.44
2023-02-14T23:25:11.724Z,45.87
2023-02-14T23:27:45.974Z,46.05
2023-02-14T23:30:17.347Z,46.29
2023-02-14T23:32:45.472Z,46.68
2023-02-14T23:35:14.364Z,47.08
2023-02-14T23:37:42.842Z,46.96
2023-02-14T23:40:23.615Z,46.90
